Airfield :
LOGIN :

Register | Disclaimer

   EN    FR    IT 

 










Legend :    VFR   Marginal VFR   IFR   Intensive IFR   Very Intensive IFR
Visi :
Ceiling :
>= 8 km
>= 3000ft
5 to 8 km
1000 to 3000 ft
1500m to 5 km
500 to 1000 ft
800 to 1500m
200 to 500 ft
< 800m
< 200 ft
Symbols :   Thunderstorms  Fog  Heavy snow  Heavy precipitations  Wind > 20 kt
SIGMETs :     Misc.  Thunderstorms  Icing  Turbulence  Mountain Waves  Volcanic Ashes







- Airport Elevation : 158 ft
- IATA code : QAR


EHDL - Deelen Airbase

CURRENT METAR :
  • 260655Z AUTO 25011KT 200V300 9999 FEW014 BKN016 OVC019 09/07 Q1013 WHT

EXPIRED METARs :
  • 260625Z AUTO 25010KT 190V300 9999 FEW010 SCT013 09/07 Q1013 GRN
  • 260555Z AUTO 24010KT 210V300 9999 BKN055 08/06 Q1013 BLU
  • 260525Z AUTO 24008KT 180V300 9999 FEW048 08/06 Q1012 BLU
  • 260455Z AUTO 24009KT 180V290 9999 FEW011 SCT014 OVC071 07/06 Q1012 GRN
  • 260425Z AUTO 24007KT 200V270 9999 SCT015 BKN018 OVC023 07/06 Q1012 WHT

TAF TAF EHDL
Valid from the 26 at 05:00 until the 26 at 17:00 UTC


260559Z 2605/2617 25010KT 9999 SCT020 SCT040
PROB30
TEMPO 2605/2607 SCT016 SCT040
BECMG 2608/2610 26014G27KT
No reported NOTAMs for that airfield.



MET'MAP, your aeronautical weather chart ! - Copyright ORBIFLY December 2007 - Disclaimer

ORBIFLY MET'MAP TEAM :

Programming & Development : Alexandra Zaïnal
Concept & Development : Baudouin d'Aumeries
Co-Development & Prog : Marc-Olivier Méhu
Technical & hardware support : Manuel Goepfert

Contact : metmap@orbifly.com




SOURCES & CREDITS :

   NOAA